sensor_id;sensor_type;location;lat;lon;timestamp;P1;durP1;ratioP1;P2;durP2;ratioP2
73733;SDS011;62039;50.000;9.064;2023-07-20T00:01:32;1.30;;;0.80;;
73733;SDS011;62039;50.000;9.064;2023-07-20T00:03:59;1.17;;;0.90;;
73733;SDS011;62039;50.000;9.064;2023-07-20T00:06:26;1.43;;;0.90;;
73733;SDS011;62039;50.000;9.064;2023-07-20T00:08:56;2.30;;;1.20;;
73733;SDS011;62039;50.000;9.064;2023-07-20T00:11:26;1.83;;;1.13;;
73733;SDS011;62039;50.000;9.064;2023-07-20T00:13:53;1.37;;;1.00;;
73733;SDS011;62039;50.000;9.064;2023-07-20T00:16:20;1.13;;;0.97;;
73733;SDS011;62039;50.000;9.064;2023-07-20T00:18:48;2.00;;;1.03;;
73733;SDS011;62039;50.000;9.064;2023-07-20T00:21:15;1.90;;;1.10;;
73733;SDS011;62039;50.000;9.064;2023-07-20T00:23:42;1.70;;;1.00;;
73733;SDS011;62039;50.000;9.064;2023-07-20T00:26:12;1.00;;;0.83;;
73733;SDS011;62039;50.000;9.064;2023-07-20T00:28:39;2.53;;;1.03;;
73733;SDS011;62039;50.000;9.064;2023-07-20T00:31:06;1.30;;;1.10;;
73733;SDS011;62039;50.000;9.064;2023-07-20T00:33:32;1.40;;;0.90;;
73733;SDS011;62039;50.000;9.064;2023-07-20T00:35:59;1.53;;;1.20;;
73733;SDS011;62039;50.000;9.064;2023-07-20T00:38:27;1.20;;;1.10;;
73733;SDS011;62039;50.000;9.064;2023-07-20T00:40:53;1.40;;;0.90;;
73733;SDS011;62039;50.000;9.064;2023-07-20T00:43:23;1.27;;;0.97;;
73733;SDS011;62039;50.000;9.064;2023-07-20T00:45:50;1.97;;;1.00;;
73733;SDS011;62039;50.000;9.064;2023-07-20T00:48:17;1.20;;;1.00;;
73733;SDS011;62039;50.000;9.064;2023-07-20T00:50:45;1.17;;;1.07;;
73733;SDS011;62039;50.000;9.064;2023-07-20T00:53:12;1.67;;;1.30;;
73733;SDS011;62039;50.000;9.064;2023-07-20T00:55:39;1.20;;;1.00;;
73733;SDS011;62039;50.000;9.064;2023-07-20T00:58:06;1.93;;;1.23;;
73733;SDS011;62039;50.000;9.064;2023-07-20T01:00:37;1.20;;;1.10;;
73733;SDS011;62039;50.000;9.064;2023-07-20T01:03:03;1.50;;;1.20;;
73733;SDS011;62039;50.000;9.064;2023-07-20T01:05:33;1.40;;;1.07;;
73733;SDS011;62039;50.000;9.064;2023-07-20T01:08:07;1.57;;;1.20;;
73733;SDS011;62039;50.000;9.064;2023-07-20T01:10:38;1.20;;;1.10;;
73733;SDS011;62039;50.000;9.064;2023-07-20T01:13:09;1.50;;;1.00;;
73733;SDS011;62039;50.000;9.064;2023-07-20T01:15:39;1.40;;;1.30;;
73733;SDS011;62039;50.000;9.064;2023-07-20T01:18:06;1.30;;;0.97;;
73733;SDS011;62039;50.000;9.064;2023-07-20T01:20:33;3.23;;;1.40;;
73733;SDS011;62039;50.000;9.064;2023-07-20T01:23:13;1.43;;;1.20;;
73733;SDS011;62039;50.000;9.064;2023-07-20T01:31:38;2.03;;;1.20;;
73733;SDS011;62039;50.000;9.064;2023-07-20T01:34:07;1.30;;;1.20;;
73733;SDS011;62039;50.000;9.064;2023-07-20T01:36:38;1.37;;;1.27;;
73733;SDS011;62039;50.000;9.064;2023-07-20T01:39:06;1.30;;;1.20;;
73733;SDS011;62039;50.000;9.064;2023-07-20T01:41:34;1.50;;;1.40;;
73733;SDS011;62039;50.000;9.064;2023-07-20T01:44:03;1.63;;;1.20;;
73733;SDS011;62039;50.000;9.064;2023-07-20T01:46:30;2.63;;;1.40;;
73733;SDS011;62039;50.000;9.064;2023-07-20T01:49:00;2.60;;;1.37;;
73733;SDS011;62039;50.000;9.064;2023-07-20T01:51:27;1.20;;;1.10;;
73733;SDS011;62039;50.000;9.064;2023-07-20T01:53:54;2.17;;;1.33;;
73733;SDS011;62039;50.000;9.064;2023-07-20T01:56:21;1.40;;;1.17;;
73733;SDS011;62039;50.000;9.064;2023-07-20T01:58:48;1.50;;;1.00;;
73733;SDS011;62039;50.000;9.064;2023-07-20T02:01:15;2.43;;;1.43;;
73733;SDS011;62039;50.000;9.064;2023-07-20T02:03:42;2.67;;;1.20;;
73733;SDS011;62039;50.000;9.064;2023-07-20T02:06:12;2.03;;;1.20;;
73733;SDS011;62039;50.000;9.064;2023-07-20T02:08:39;1.97;;;1.30;;
73733;SDS011;62039;50.000;9.064;2023-07-20T02:11:06;1.40;;;1.07;;
73733;SDS011;62039;50.000;9.064;2023-07-20T02:13:33;1.50;;;1.30;;
73733;SDS011;62039;50.000;9.064;2023-07-20T02:16:00;2.53;;;1.30;;
73733;SDS011;62039;50.000;9.064;2023-07-20T02:18:27;2.20;;;1.20;;
73733;SDS011;62039;50.000;9.064;2023-07-20T02:20:54;1.30;;;1.20;;
73733;SDS011;62039;50.000;9.064;2023-07-20T02:23:23;1.53;;;1.40;;
73733;SDS011;62039;50.000;9.064;2023-07-20T02:25:50;1.93;;;1.40;;
73733;SDS011;62039;50.000;9.064;2023-07-20T02:28:17;2.17;;;1.63;;
73733;SDS011;62039;50.000;9.064;2023-07-20T02:30:44;1.37;;;1.27;;
73733;SDS011;62039;50.000;9.064;2023-07-20T02:33:11;2.53;;;1.70;;
73733;SDS011;62039;50.000;9.064;2023-07-20T02:35:39;1.77;;;1.30;;
73733;SDS011;62039;50.000;9.064;2023-07-20T02:38:06;2.00;;;1.20;;
73733;SDS011;62039;50.000;9.064;2023-07-20T02:40:36;1.37;;;1.20;;
73733;SDS011;62039;50.000;9.064;2023-07-20T02:43:03;2.63;;;1.40;;
73733;SDS011;62039;50.000;9.064;2023-07-20T02:45:30;1.50;;;1.20;;
73733;SDS011;62039;50.000;9.064;2023-07-20T02:47:57;1.57;;;1.30;;
73733;SDS011;62039;50.000;9.064;2023-07-20T02:50:24;1.20;;;1.10;;
73733;SDS011;62039;50.000;9.064;2023-07-20T02:52:51;1.80;;;1.40;;
73733;SDS011;62039;50.000;9.064;2023-07-20T02:55:18;1.70;;;1.20;;
73733;SDS011;62039;50.000;9.064;2023-07-20T02:57:48;1.80;;;1.57;;
73733;SDS011;62039;50.000;9.064;2023-07-20T03:00:15;1.83;;;1.53;;
73733;SDS011;62039;50.000;9.064;2023-07-20T03:02:42;1.50;;;1.23;;
73733;SDS011;62039;50.000;9.064;2023-07-20T03:05:10;1.80;;;1.20;;
73733;SDS011;62039;50.000;9.064;2023-07-20T03:07:37;1.60;;;1.20;;
73733;SDS011;62039;50.000;9.064;2023-07-20T03:10:04;1.20;;;1.10;;
73733;SDS011;62039;50.000;9.064;2023-07-20T03:12:32;2.13;;;1.30;;
73733;SDS011;62039;50.000;9.064;2023-07-20T03:15:01;2.17;;;1.30;;
73733;SDS011;62039;50.000;9.064;2023-07-20T03:17:29;2.67;;;1.80;;
73733;SDS011;62039;50.000;9.064;2023-07-20T03:19:56;3.13;;;1.67;;
73733;SDS011;62039;50.000;9.064;2023-07-20T03:22:23;2.50;;;1.67;;
73733;SDS011;62039;50.000;9.064;2023-07-20T03:24:50;2.07;;;1.20;;
73733;SDS011;62039;50.000;9.064;2023-07-20T03:27:16;2.50;;;1.30;;
73733;SDS011;62039;50.000;9.064;2023-07-20T03:29:43;1.40;;;1.10;;
73733;SDS011;62039;50.000;9.064;2023-07-20T03:32:13;1.63;;;1.30;;
73733;SDS011;62039;50.000;9.064;2023-07-20T03:34:40;1.60;;;1.20;;
73733;SDS011;62039;50.000;9.064;2023-07-20T03:37:07;2.40;;;1.53;;
73733;SDS011;62039;50.000;9.064;2023-07-20T03:39:34;3.63;;;1.50;;
73733;SDS011;62039;50.000;9.064;2023-07-20T03:42:01;3.57;;;1.70;;
73733;SDS011;62039;50.000;9.064;2023-07-20T03:44:29;4.07;;;1.90;;
73733;SDS011;62039;50.000;9.064;2023-07-20T03:46:56;2.33;;;1.63;;
73733;SDS011;62039;50.000;9.064;2023-07-20T03:49:26;1.90;;;1.53;;
73733;SDS011;62039;50.000;9.064;2023-07-20T03:51:52;2.20;;;1.70;;
73733;SDS011;62039;50.000;9.064;2023-07-20T03:54:19;2.30;;;1.70;;
73733;SDS011;62039;50.000;9.064;2023-07-20T03:56:46;2.27;;;1.63;;
73733;SDS011;62039;50.000;9.064;2023-07-20T03:59:13;1.57;;;1.20;;
73733;SDS011;62039;50.000;9.064;2023-07-20T04:01:40;2.23;;;1.80;;
73733;SDS011;62039;50.000;9.064;2023-07-20T04:04:07;2.00;;;1.60;;
73733;SDS011;62039;50.000;9.064;2023-07-20T04:06:37;1.77;;;1.50;;
73733;SDS011;62039;50.000;9.064;2023-07-20T04:09:04;1.93;;;1.50;;
73733;SDS011;62039;50.000;9.064;2023-07-20T04:11:31;1.77;;;1.47;;
73733;SDS011;62039;50.000;9.064;2023-07-20T04:13:58;2.07;;;1.40;;
73733;SDS011;62039;50.000;9.064;2023-07-20T04:16:25;2.10;;;1.53;;
73733;SDS011;62039;50.000;9.064;2023-07-20T04:18:54;2.77;;;1.37;;
73733;SDS011;62039;50.000;9.064;2023-07-20T04:21:21;1.40;;;1.27;;
73733;SDS011;62039;50.000;9.064;2023-07-20T04:23:51;2.13;;;1.53;;
73733;SDS011;62039;50.000;9.064;2023-07-20T04:26:18;2.83;;;1.40;;
73733;SDS011;62039;50.000;9.064;2023-07-20T04:28:45;3.33;;;1.70;;
73733;SDS011;62039;50.000;9.064;2023-07-20T04:31:13;2.30;;;1.70;;
73733;SDS011;62039;50.000;9.064;2023-07-20T04:33:40;2.13;;;1.50;;
73733;SDS011;62039;50.000;9.064;2023-07-20T04:36:08;1.83;;;1.43;;
73733;SDS011;62039;50.000;9.064;2023-07-20T04:38:35;1.83;;;1.33;;
73733;SDS011;62039;50.000;9.064;2023-07-20T04:41:04;4.17;;;1.57;;
73733;SDS011;62039;50.000;9.064;2023-07-20T04:43:31;1.80;;;1.57;;
73733;SDS011;62039;50.000;9.064;2023-07-20T04:45:58;3.87;;;1.57;;
73733;SDS011;62039;50.000;9.064;2023-07-20T04:48:26;3.33;;;1.40;;
73733;SDS011;62039;50.000;9.064;2023-07-20T04:50:56;2.67;;;1.53;;
73733;SDS011;62039;50.000;9.064;2023-07-20T04:53:23;2.33;;;1.50;;
73733;SDS011;62039;50.000;9.064;2023-07-20T04:55:51;1.60;;;1.40;;
73733;SDS011;62039;50.000;9.064;2023-07-20T04:58:21;2.87;;;1.23;;
73733;SDS011;62039;50.000;9.064;2023-07-20T05:00:49;2.37;;;1.50;;
73733;SDS011;62039;50.000;9.064;2023-07-20T05:03:17;1.73;;;1.53;;
73733;SDS011;62039;50.000;9.064;2023-07-20T05:05:46;2.40;;;1.60;;
73733;SDS011;62039;50.000;9.064;2023-07-20T05:08:15;3.63;;;1.60;;
73733;SDS011;62039;50.000;9.064;2023-07-20T05:10:43;2.27;;;1.50;;
73733;SDS011;62039;50.000;9.064;2023-07-20T05:13:13;2.50;;;1.50;;
73733;SDS011;62039;50.000;9.064;2023-07-20T05:15:43;2.10;;;1.90;;
73733;SDS011;62039;50.000;9.064;2023-07-20T05:18:10;1.87;;;1.53;;
73733;SDS011;62039;50.000;9.064;2023-07-20T05:20:37;1.63;;;1.53;;
73733;SDS011;62039;50.000;9.064;2023-07-20T05:23:04;1.63;;;1.50;;
73733;SDS011;62039;50.000;9.064;2023-07-20T05:25:31;2.50;;;1.50;;
73733;SDS011;62039;50.000;9.064;2023-07-20T05:27:58;1.73;;;1.50;;
73733;SDS011;62039;50.000;9.064;2023-07-20T05:30:24;2.40;;;1.47;;
73733;SDS011;62039;50.000;9.064;2023-07-20T05:32:54;1.90;;;1.40;;
73733;SDS011;62039;50.000;9.064;2023-07-20T05:35:21;1.90;;;1.43;;
73733;SDS011;62039;50.000;9.064;2023-07-20T05:37:48;1.70;;;1.20;;
73733;SDS011;62039;50.000;9.064;2023-07-20T05:40:15;1.83;;;1.43;;
73733;SDS011;62039;50.000;9.064;2023-07-20T05:42:43;2.00;;;1.57;;
73733;SDS011;62039;50.000;9.064;2023-07-20T05:45:10;1.40;;;1.30;;
73733;SDS011;62039;50.000;9.064;2023-07-20T05:47:37;1.93;;;1.53;;
73733;SDS011;62039;50.000;9.064;2023-07-20T05:50:07;1.73;;;1.20;;
73733;SDS011;62039;50.000;9.064;2023-07-20T05:52:35;1.87;;;1.30;;
73733;SDS011;62039;50.000;9.064;2023-07-20T05:55:03;2.27;;;1.30;;
73733;SDS011;62039;50.000;9.064;2023-07-20T05:57:33;3.10;;;1.50;;
73733;SDS011;62039;50.000;9.064;2023-07-20T06:00:00;4.20;;;1.50;;
73733;SDS011;62039;50.000;9.064;2023-07-20T06:02:27;2.47;;;1.27;;
73733;SDS011;62039;50.000;9.064;2023-07-20T06:04:54;1.70;;;1.13;;
73733;SDS011;62039;50.000;9.064;2023-07-20T06:07:24;1.47;;;1.27;;
73733;SDS011;62039;50.000;9.064;2023-07-20T06:09:51;1.30;;;1.20;;
73733;SDS011;62039;50.000;9.064;2023-07-20T06:12:18;2.37;;;1.23;;
73733;SDS011;62039;50.000;9.064;2023-07-20T06:14:45;1.17;;;1.07;;
73733;SDS011;62039;50.000;9.064;2023-07-20T06:17:12;1.87;;;1.30;;
73733;SDS011;62039;50.000;9.064;2023-07-20T06:19:39;1.50;;;1.27;;
73733;SDS011;62039;50.000;9.064;2023-07-20T06:22:06;1.53;;;1.40;;
73733;SDS011;62039;50.000;9.064;2023-07-20T06:24:35;1.60;;;1.40;;
73733;SDS011;62039;50.000;9.064;2023-07-20T06:27:03;1.90;;;1.30;;
73733;SDS011;62039;50.000;9.064;2023-07-20T06:29:30;1.60;;;1.30;;
73733;SDS011;62039;50.000;9.064;2023-07-20T06:31:57;1.57;;;1.30;;
73733;SDS011;62039;50.000;9.064;2023-07-20T06:34:24;1.93;;;1.30;;
73733;SDS011;62039;50.000;9.064;2023-07-20T06:36:51;2.47;;;1.30;;
73733;SDS011;62039;50.000;9.064;2023-07-20T06:39:18;1.40;;;1.10;;
73733;SDS011;62039;50.000;9.064;2023-07-20T06:41:51;3.53;;;1.33;;
73733;SDS011;62039;50.000;9.064;2023-07-20T06:44:21;1.47;;;1.10;;
73733;SDS011;62039;50.000;9.064;2023-07-20T06:46:48;2.03;;;1.43;;
73733;SDS011;62039;50.000;9.064;2023-07-20T06:49:23;3.17;;;1.47;;
73733;SDS011;62039;50.000;9.064;2023-07-20T06:51:51;2.40;;;1.43;;
73733;SDS011;62039;50.000;9.064;2023-07-20T06:54:18;1.73;;;1.30;;
73733;SDS011;62039;50.000;9.064;2023-07-20T06:56:52;1.90;;;1.20;;
73733;SDS011;62039;50.000;9.064;2023-07-20T06:59:22;1.77;;;1.50;;
73733;SDS011;62039;50.000;9.064;2023-07-20T07:01:49;2.80;;;1.60;;
73733;SDS011;62039;50.000;9.064;2023-07-20T07:04:16;2.40;;;1.70;;
73733;SDS011;62039;50.000;9.064;2023-07-20T07:06:43;1.87;;;1.43;;
73733;SDS011;62039;50.000;9.064;2023-07-20T07:09:10;3.37;;;1.70;;
73733;SDS011;62039;50.000;9.064;2023-07-20T07:11:37;1.50;;;1.40;;
73733;SDS011;62039;50.000;9.064;2023-07-20T07:14:06;1.93;;;1.20;;
73733;SDS011;62039;50.000;9.064;2023-07-20T07:16:34;2.97;;;1.70;;
73733;SDS011;62039;50.000;9.064;2023-07-20T07:19:05;1.93;;;1.43;;
73733;SDS011;62039;50.000;9.064;2023-07-20T07:21:32;1.97;;;1.17;;
73733;SDS011;62039;50.000;9.064;2023-07-20T07:23:58;2.67;;;1.37;;
73733;SDS011;62039;50.000;9.064;2023-07-20T07:26:25;1.57;;;1.30;;
73733;SDS011;62039;50.000;9.064;2023-07-20T07:28:52;2.13;;;1.30;;
73733;SDS011;62039;50.000;9.064;2023-07-20T07:31:22;1.87;;;1.23;;
73733;SDS011;62039;50.000;9.064;2023-07-20T07:33:51;3.07;;;1.30;;
73733;SDS011;62039;50.000;9.064;2023-07-20T07:36:18;1.40;;;1.10;;
73733;SDS011;62039;50.000;9.064;2023-07-20T07:38:45;1.50;;;1.13;;
73733;SDS011;62039;50.000;9.064;2023-07-20T07:41:28;1.33;;;1.10;;
73733;SDS011;62039;50.000;9.064;2023-07-20T07:43:55;1.30;;;0.87;;
73733;SDS011;62039;50.000;9.064;2023-07-20T07:46:25;1.67;;;1.20;;
73733;SDS011;62039;50.000;9.064;2023-07-20T07:48:52;2.13;;;1.47;;
73733;SDS011;62039;50.000;9.064;2023-07-20T07:51:20;1.27;;;1.17;;
73733;SDS011;62039;50.000;9.064;2023-07-20T07:53:47;1.50;;;1.40;;
73733;SDS011;62039;50.000;9.064;2023-07-20T07:56:14;1.60;;;0.90;;
73733;SDS011;62039;50.000;9.064;2023-07-20T07:58:41;1.80;;;1.20;;
73733;SDS011;62039;50.000;9.064;2023-07-20T08:01:08;1.70;;;1.33;;
73733;SDS011;62039;50.000;9.064;2023-07-20T08:03:38;1.73;;;1.10;;
73733;SDS011;62039;50.000;9.064;2023-07-20T08:06:05;1.87;;;1.10;;
73733;SDS011;62039;50.000;9.064;2023-07-20T08:08:32;2.03;;;1.17;;
73733;SDS011;62039;50.000;9.064;2023-07-20T08:10:59;1.87;;;1.20;;
73733;SDS011;62039;50.000;9.064;2023-07-20T08:13:32;2.53;;;1.20;;
73733;SDS011;62039;50.000;9.064;2023-07-20T08:15:59;2.00;;;1.37;;
73733;SDS011;62039;50.000;9.064;2023-07-20T08:18:27;2.07;;;1.20;;
73733;SDS011;62039;50.000;9.064;2023-07-20T08:20:56;1.30;;;1.20;;
73733;SDS011;62039;50.000;9.064;2023-07-20T08:23:23;1.33;;;1.17;;
73733;SDS011;62039;50.000;9.064;2023-07-20T08:25:50;1.50;;;1.10;;
73733;SDS011;62039;50.000;9.064;2023-07-20T08:28:17;1.73;;;1.10;;
73733;SDS011;62039;50.000;9.064;2023-07-20T08:30:45;1.17;;;1.07;;
73733;SDS011;62039;50.000;9.064;2023-07-20T08:33:13;1.47;;;1.20;;
73733;SDS011;62039;50.000;9.064;2023-07-20T08:35:41;1.20;;;0.90;;
73733;SDS011;62039;50.000;9.064;2023-07-20T08:38:11;1.30;;;1.00;;
73733;SDS011;62039;50.000;9.064;2023-07-20T08:40:39;1.83;;;1.30;;
73733;SDS011;62039;50.000;9.064;2023-07-20T08:43:07;1.60;;;1.10;;
73733;SDS011;62039;50.000;9.064;2023-07-20T08:45:35;1.10;;;0.90;;
73733;SDS011;62039;50.000;9.064;2023-07-20T08:48:04;1.93;;;1.33;;
73733;SDS011;62039;50.000;9.064;2023-07-20T08:50:32;1.87;;;1.20;;
73733;SDS011;62039;50.000;9.064;2023-07-20T08:53:00;1.80;;;1.40;;
73733;SDS011;62039;50.000;9.064;2023-07-20T08:55:31;1.30;;;1.20;;
73733;SDS011;62039;50.000;9.064;2023-07-20T08:58:00;2.33;;;1.00;;
73733;SDS011;62039;50.000;9.064;2023-07-20T09:00:29;1.47;;;1.10;;
73733;SDS011;62039;50.000;9.064;2023-07-20T09:02:56;1.60;;;1.20;;
73733;SDS011;62039;50.000;9.064;2023-07-20T09:05:25;1.70;;;1.13;;
73733;SDS011;62039;50.000;9.064;2023-07-20T09:07:53;1.20;;;0.90;;
73733;SDS011;62039;50.000;9.064;2023-07-20T09:10:20;2.00;;;1.20;;
73733;SDS011;62039;50.000;9.064;2023-07-20T09:12:50;1.70;;;1.60;;
73733;SDS011;62039;50.000;9.064;2023-07-20T09:15:18;1.77;;;1.20;;
73733;SDS011;62039;50.000;9.064;2023-07-20T09:17:46;1.67;;;1.30;;
73733;SDS011;62039;50.000;9.064;2023-07-20T09:20:14;1.23;;;1.13;;
73733;SDS011;62039;50.000;9.064;2023-07-20T09:22:42;1.40;;;1.17;;
73733;SDS011;62039;50.000;9.064;2023-07-20T09:25:10;2.30;;;1.23;;
73733;SDS011;62039;50.000;9.064;2023-07-20T09:27:38;1.50;;;1.10;;
73733;SDS011;62039;50.000;9.064;2023-07-20T09:30:10;1.73;;;1.13;;
73733;SDS011;62039;50.000;9.064;2023-07-20T09:32:44;1.00;;;0.90;;
73733;SDS011;62039;50.000;9.064;2023-07-20T09:35:16;1.10;;;1.00;;
73733;SDS011;62039;50.000;9.064;2023-07-20T09:37:46;1.67;;;1.00;;
73733;SDS011;62039;50.000;9.064;2023-07-20T09:40:17;1.10;;;1.00;;
73733;SDS011;62039;50.000;9.064;2023-07-20T09:42:44;1.10;;;1.00;;
73733;SDS011;62039;50.000;9.064;2023-07-20T09:45:35;1.27;;;0.90;;
73733;SDS011;62039;50.000;9.064;2023-07-20T09:48:24;1.00;;;0.90;;
73733;SDS011;62039;50.000;9.064;2023-07-20T09:50:55;1.50;;;1.10;;
73733;SDS011;62039;50.000;9.064;2023-07-20T09:53:23;1.23;;;1.00;;
73733;SDS011;62039;50.000;9.064;2023-07-20T09:55:52;1.50;;;0.80;;
73733;SDS011;62039;50.000;9.064;2023-07-20T09:58:19;1.43;;;1.07;;
73733;SDS011;62039;50.000;9.064;2023-07-20T10:00:50;2.03;;;0.80;;
73733;SDS011;62039;50.000;9.064;2023-07-20T10:03:20;1.13;;;0.90;;
73733;SDS011;62039;50.000;9.064;2023-07-20T10:05:51;1.20;;;0.90;;
73733;SDS011;62039;50.000;9.064;2023-07-20T10:08:20;2.30;;;1.10;;
73733;SDS011;62039;50.000;9.064;2023-07-20T10:10:54;3.97;;;1.00;;
73733;SDS011;62039;50.000;9.064;2023-07-20T10:13:21;3.77;;;1.20;;
73733;SDS011;62039;50.000;9.064;2023-07-20T10:15:57;1.03;;;0.87;;
73733;SDS011;62039;50.000;9.064;2023-07-20T10:18:30;1.20;;;1.10;;
73733;SDS011;62039;50.000;9.064;2023-07-20T10:21:01;1.73;;;1.00;;
73733;SDS011;62039;50.000;9.064;2023-07-20T10:23:32;1.60;;;1.13;;
73733;SDS011;62039;50.000;9.064;2023-07-20T10:26:00;1.00;;;0.90;;
73733;SDS011;62039;50.000;9.064;2023-07-20T10:28:28;1.30;;;1.10;;
73733;SDS011;62039;50.000;9.064;2023-07-20T10:30:58;1.40;;;1.00;;
73733;SDS011;62039;50.000;9.064;2023-07-20T10:33:25;2.07;;;1.10;;
73733;SDS011;62039;50.000;9.064;2023-07-20T10:35:52;0.80;;;0.80;;
73733;SDS011;62039;50.000;9.064;2023-07-20T10:41:15;1.50;;;1.20;;
73733;SDS011;62039;50.000;9.064;2023-07-20T10:43:43;1.00;;;0.87;;
73733;SDS011;62039;50.000;9.064;2023-07-20T10:46:13;1.30;;;1.17;;
73733;SDS011;62039;50.000;9.064;2023-07-20T10:51:38;1.30;;;0.90;;
73733;SDS011;62039;50.000;9.064;2023-07-20T10:54:07;1.27;;;1.10;;
73733;SDS011;62039;50.000;9.064;2023-07-20T10:56:35;1.33;;;1.23;;
73733;SDS011;62039;50.000;9.064;2023-07-20T10:59:02;1.37;;;1.07;;
73733;SDS011;62039;50.000;9.064;2023-07-20T11:01:47;1.10;;;1.00;;
73733;SDS011;62039;50.000;9.064;2023-07-20T11:04:14;1.70;;;1.10;;
73733;SDS011;62039;50.000;9.064;2023-07-20T11:06:42;0.80;;;0.80;;
73733;SDS011;62039;50.000;9.064;2023-07-20T11:09:13;1.20;;;1.10;;
73733;SDS011;62039;50.000;9.064;2023-07-20T11:11:41;1.53;;;1.10;;
73733;SDS011;62039;50.000;9.064;2023-07-20T11:14:10;0.93;;;0.90;;
73733;SDS011;62039;50.000;9.064;2023-07-20T11:16:49;1.00;;;0.70;;
73733;SDS011;62039;50.000;9.064;2023-07-20T11:19:17;1.10;;;1.00;;
73733;SDS011;62039;50.000;9.064;2023-07-20T11:21:49;1.10;;;1.00;;
73733;SDS011;62039;50.000;9.064;2023-07-20T11:24:29;2.33;;;1.07;;
73733;SDS011;62039;50.000;9.064;2023-07-20T11:26:56;1.17;;;1.00;;
73733;SDS011;62039;50.000;9.064;2023-07-20T11:29:23;1.10;;;0.90;;
73733;SDS011;62039;50.000;9.064;2023-07-20T11:32:01;1.53;;;1.10;;
73733;SDS011;62039;50.000;9.064;2023-07-20T11:34:31;2.50;;;1.00;;
73733;SDS011;62039;50.000;9.064;2023-07-20T11:36:59;1.73;;;1.50;;
73733;SDS011;62039;50.000;9.064;2023-07-20T11:39:30;1.20;;;1.10;;
73733;SDS011;62039;50.000;9.064;2023-07-20T11:41:57;1.97;;;1.10;;
73733;SDS011;62039;50.000;9.064;2023-07-20T11:44:25;1.50;;;1.17;;
73733;SDS011;62039;50.000;9.064;2023-07-20T11:47:03;1.67;;;1.20;;
73733;SDS011;62039;50.000;9.064;2023-07-20T11:49:34;1.30;;;1.20;;
73733;SDS011;62039;50.000;9.064;2023-07-20T11:52:02;2.13;;;1.30;;
73733;SDS011;62039;50.000;9.064;2023-07-20T11:54:30;2.13;;;1.23;;
73733;SDS011;62039;50.000;9.064;2023-07-20T11:57:00;1.60;;;1.27;;
73733;SDS011;62039;50.000;9.064;2023-07-20T11:59:27;1.20;;;1.00;;
73733;SDS011;62039;50.000;9.064;2023-07-20T12:01:54;1.50;;;1.10;;
73733;SDS011;62039;50.000;9.064;2023-07-20T12:04:25;2.40;;;1.40;;
73733;SDS011;62039;50.000;9.064;2023-07-20T12:06:53;1.93;;;1.30;;
73733;SDS011;62039;50.000;9.064;2023-07-20T12:09:20;1.63;;;1.23;;
73733;SDS011;62039;50.000;9.064;2023-07-20T12:11:48;1.17;;;1.07;;
73733;SDS011;62039;50.000;9.064;2023-07-20T12:14:16;1.23;;;1.13;;
73733;SDS011;62039;50.000;9.064;2023-07-20T12:16:43;1.80;;;1.10;;
73733;SDS011;62039;50.000;9.064;2023-07-20T12:19:11;1.10;;;1.00;;
73733;SDS011;62039;50.000;9.064;2023-07-20T12:21:41;1.83;;;1.30;;
73733;SDS011;62039;50.000;9.064;2023-07-20T12:24:10;2.07;;;1.20;;
73733;SDS011;62039;50.000;9.064;2023-07-20T12:26:37;1.30;;;1.20;;
73733;SDS011;62039;50.000;9.064;2023-07-20T12:29:04;1.37;;;1.00;;
73733;SDS011;62039;50.000;9.064;2023-07-20T12:31:36;1.27;;;0.90;;
73733;SDS011;62039;50.000;9.064;2023-07-20T12:34:03;1.10;;;1.00;;
73733;SDS011;62039;50.000;9.064;2023-07-20T12:36:30;2.33;;;1.67;;
73733;SDS011;62039;50.000;9.064;2023-07-20T12:39:00;1.20;;;1.00;;
73733;SDS011;62039;50.000;9.064;2023-07-20T12:41:27;1.10;;;1.00;;
73733;SDS011;62039;50.000;9.064;2023-07-20T12:43:54;1.27;;;1.00;;
73733;SDS011;62039;50.000;9.064;2023-07-20T12:46:21;1.20;;;1.00;;
73733;SDS011;62039;50.000;9.064;2023-07-20T12:48:48;0.97;;;0.80;;
73733;SDS011;62039;50.000;9.064;2023-07-20T12:51:15;1.67;;;1.10;;
73733;SDS011;62039;50.000;9.064;2023-07-20T12:53:42;1.07;;;0.90;;
73733;SDS011;62039;50.000;9.064;2023-07-20T12:56:12;1.50;;;1.20;;
73733;SDS011;62039;50.000;9.064;2023-07-20T12:58:42;0.87;;;0.77;;
73733;SDS011;62039;50.000;9.064;2023-07-20T13:01:09;1.17;;;1.00;;
73733;SDS011;62039;50.000;9.064;2023-07-20T13:03:36;1.27;;;1.10;;
73733;SDS011;62039;50.000;9.064;2023-07-20T13:06:24;1.90;;;1.20;;
73733;SDS011;62039;50.000;9.064;2023-07-20T13:08:54;1.27;;;0.90;;
73733;SDS011;62039;50.000;9.064;2023-07-20T13:11:24;1.20;;;1.03;;
73733;SDS011;62039;50.000;9.064;2023-07-20T13:13:51;0.90;;;0.90;;
73733;SDS011;62039;50.000;9.064;2023-07-20T13:16:18;1.50;;;1.20;;
73733;SDS011;62039;50.000;9.064;2023-07-20T13:18:45;1.07;;;0.80;;
73733;SDS011;62039;50.000;9.064;2023-07-20T13:21:12;1.10;;;0.70;;
73733;SDS011;62039;50.000;9.064;2023-07-20T13:23:39;1.10;;;1.00;;
73733;SDS011;62039;50.000;9.064;2023-07-20T13:26:06;1.57;;;1.00;;
73733;SDS011;62039;50.000;9.064;2023-07-20T13:28:36;1.47;;;1.10;;
73733;SDS011;62039;50.000;9.064;2023-07-20T13:31:03;2.33;;;0.90;;
73733;SDS011;62039;50.000;9.064;2023-07-20T13:33:30;1.47;;;1.10;;
73733;SDS011;62039;50.000;9.064;2023-07-20T13:36:03;1.53;;;0.93;;
73733;SDS011;62039;50.000;9.064;2023-07-20T13:38:34;1.10;;;1.00;;
73733;SDS011;62039;50.000;9.064;2023-07-20T13:41:01;1.27;;;0.93;;
73733;SDS011;62039;50.000;9.064;2023-07-20T13:43:28;0.80;;;0.80;;
73733;SDS011;62039;50.000;9.064;2023-07-20T13:45:58;1.20;;;1.10;;
73733;SDS011;62039;50.000;9.064;2023-07-20T13:48:25;0.80;;;0.80;;
73733;SDS011;62039;50.000;9.064;2023-07-20T13:50:54;2.33;;;1.00;;
73733;SDS011;62039;50.000;9.064;2023-07-20T13:53:23;1.30;;;1.00;;
73733;SDS011;62039;50.000;9.064;2023-07-20T13:55:53;1.30;;;1.00;;
73733;SDS011;62039;50.000;9.064;2023-07-20T13:58:23;1.27;;;0.93;;
73733;SDS011;62039;50.000;9.064;2023-07-20T14:00:51;1.07;;;0.80;;
73733;SDS011;62039;50.000;9.064;2023-07-20T14:03:20;1.37;;;1.00;;
73733;SDS011;62039;50.000;9.064;2023-07-20T14:05:47;1.60;;;1.00;;
73733;SDS011;62039;50.000;9.064;2023-07-20T14:08:17;1.33;;;1.00;;
73733;SDS011;62039;50.000;9.064;2023-07-20T14:10:44;2.00;;;0.97;;
73733;SDS011;62039;50.000;9.064;2023-07-20T14:13:14;1.30;;;1.00;;
73733;SDS011;62039;50.000;9.064;2023-07-20T14:15:41;1.00;;;1.00;;
73733;SDS011;62039;50.000;9.064;2023-07-20T14:18:08;1.23;;;1.07;;
73733;SDS011;62039;50.000;9.064;2023-07-20T14:20:38;1.77;;;1.03;;
73733;SDS011;62039;50.000;9.064;2023-07-20T14:23:05;1.00;;;0.90;;
73733;SDS011;62039;50.000;9.064;2023-07-20T14:25:32;1.20;;;1.10;;
73733;SDS011;62039;50.000;9.064;2023-07-20T14:27:59;2.60;;;1.00;;
73733;SDS011;62039;50.000;9.064;2023-07-20T14:30:26;0.80;;;0.80;;
73733;SDS011;62039;50.000;9.064;2023-07-20T14:32:53;0.90;;;0.80;;
73733;SDS011;62039;50.000;9.064;2023-07-20T14:35:22;1.17;;;0.80;;
73733;SDS011;62039;50.000;9.064;2023-07-20T14:37:54;2.00;;;0.80;;
73733;SDS011;62039;50.000;9.064;2023-07-20T14:40:21;0.97;;;0.80;;
73733;SDS011;62039;50.000;9.064;2023-07-20T14:42:48;2.10;;;1.00;;
73733;SDS011;62039;50.000;9.064;2023-07-20T14:45:15;1.23;;;1.00;;
73733;SDS011;62039;50.000;9.064;2023-07-20T14:47:42;1.00;;;0.83;;
73733;SDS011;62039;50.000;9.064;2023-07-20T14:50:09;0.97;;;0.87;;
73733;SDS011;62039;50.000;9.064;2023-07-20T14:52:36;0.97;;;0.80;;
73733;SDS011;62039;50.000;9.064;2023-07-20T14:55:17;1.23;;;0.90;;
73733;SDS011;62039;50.000;9.064;2023-07-20T14:57:44;1.10;;;1.00;;
73733;SDS011;62039;50.000;9.064;2023-07-20T15:00:12;1.23;;;0.80;;
73733;SDS011;62039;50.000;9.064;2023-07-20T15:02:40;0.93;;;0.93;;
73733;SDS011;62039;50.000;9.064;2023-07-20T15:05:08;1.50;;;0.90;;
73733;SDS011;62039;50.000;9.064;2023-07-20T15:07:36;1.07;;;0.97;;